Weather at Split-Resnik Seaplane Base [CLOSED]

Public forecast

Using degrees Celsius for public forecast. Weather courtesy of forecast.io.

Closest aviation weather report (METAR) to Split-Resnik Seaplane Base

Closest report is Split Airport, 0.6 nm (1.1 km) NNW.

2024/05/24 08:00 (retrieved 13 minutes ago)

LDSP 240800Z 11004KT 050V150 CAVOK 22/13 Q1019 BECMG 23008KT

Closest aviation forecast (TAF) to Split-Resnik Seaplane Base

Closest forecast is Split Airport, 0.6 nm (1.1 km) NNW.

2024/05/24 06:27 (retrieved 2 hours ago)

TAF LDSP 240525Z 2406/2506 11004KT 9999 FEW050 TX25/2413Z TN15/2503Z BECMG 2408/2410 23012KT BECMG 2416/2418 31006KT